Lady Mary — WCY4834 — position and weather

sailwx.info

Track history (hours):
 
Tides and Currents Weather Stations Pressure Air Temp Water Temp Dewpoint Dewpoint Depression Visibility Wind Speed Wind Dir Waves Ship Positions

Lady Mary

Owner: BLACKMAN, JOHN H, SEATTLE, WA. More information available from US FCC via Universal Licensing System and Coast Guard Vessel Documentation Center.

Last reported at 2015-Sep-04 14:07 UTC. Time now 2015-Sep-04 14:37 UTC.
Position N 47°40' W 122°13'.

Length 26 m.

Type: Passenger vessel. MMSI: 367013060.

Date/timePositionNaut miles runAvg speedWind from/ knotsBaromVisibWave heightAir tempDewpointWater temp
2015-Sep-04 14:07N 47°40' W 122°13'0 0.0
2015-Sep-04 13:31N 47°40' W 122°13'0 0.0
2015-Sep-04 12:14N 47°40' W 122°13'0 0.0
2015-Sep-04 11:32N 47°40' W 122°13'0 0.0
2015-Sep-04 10:09N 47°40' W 122°13'0 0.0
2015-Sep-04 09:16N 47°40' W 122°13'0 0.0
2015-Sep-04 08:28N 47°40' W 122°13'0 0.0
2015-Sep-04 07:29N 47°40' W 122°13'0 0.0
2015-Sep-04 06:53N 47°40' W 122°13'0 0.0
2015-Sep-04 06:06N 47°40' W 122°13'0 0.0
2015-Sep-04 05:30N 47°40' W 122°13'0 0.0
2015-Sep-04 04:16N 47°40' W 122°13'1 4.5
2015-Sep-04 04:03N 47°40' W 122°14'4 5.9
2015-Sep-04 03:21N 47°39' W 122°20'1 5.9
2015-Sep-04 03:13N 47°38' W 122°20'2 3.1
2015-Sep-04 02:26N 47°39' W 122°17'3 1.4
2015-Sep-04 00:11N 47°40' W 122°13'2 4.1
2015-Sep-03 23:37N 47°39' W 122°15'0 7.2
2015-Sep-03 23:33N 47°38' W 122°15'0 6.8
2015-Sep-03 23:32N 47°38' W 122°15'3 2.4
2015-Sep-03 22:20N 47°40' W 122°13'0 0.2
2015-Sep-03 22:06N 47°40' W 122°13'3 5.2
2015-Sep-03 21:32N 47°38' W 122°15'1 7.0
2015-Sep-03 21:26N 47°37' W 122°15'4 3.0
2015-Sep-03 20:15N 47°40' W 122°13'0 0.0
2015-Sep-03 20:10N 47°40' W 122°13'0 0.0
2015-Sep-03 19:04N 47°40' W 122°13'0 0.0
2015-Sep-03 18:43N 47°40' W 122°13'0 0.0
2015-Sep-03 18:17N 47°40' W 122°13'0 0.0
2015-Sep-03 17:23N 47°40' W 122°13'0 0.0
2015-Sep-03 16:24N 47°40' W 122°13'0 0.0
2015-Sep-03 14:25N 47°40' W 122°13'0 0.0
2015-Sep-03 13:20N 47°40' W 122°13'0 0.0
2015-Sep-03 11:51N 47°40' W 122°13'0 0.0
2015-Sep-03 11:33N 47°40' W 122°13'0 0.0
2015-Sep-03 10:40N 47°40' W 122°13'0 0.0
2015-Sep-03 10:28N 47°40' W 122°13'0 0.1
2015-Sep-03 10:25N 47°40' W 122°13'0 0.0
2015-Sep-03 09:23N 47°40' W 122°13'0 0.0
2015-Sep-03 09:14N 47°40' W 122°13'0 0.0
2015-Sep-03 08:23N 47°40' W 122°13'0 0.0
2015-Sep-03 07:27N 47°40' W 122°13'0 0.0
2015-Sep-03 06:33N 47°40' W 122°13'3 6.2
2015-Sep-03 06:03N 47°39' W 122°16'3 5.0
2015-Sep-03 05:33N 47°39' W 122°20'4 4.4
2015-Sep-03 04:33N 47°40' W 122°26'0 8.7
2015-Sep-03 04:33N 47°40' W 122°27'5 4.6
2015-Sep-03 03:24N 47°36' W 122°20'0 3.2
2015-Sep-03 03:17N 47°36' W 122°21'4 6.0
2015-Sep-03 02:33N 47°39' W 122°26'0 5.3
2015-Sep-03 02:32N 47°39' W 122°26'2 2.1
2015-Sep-03 01:33N 47°38' W 122°24'0 6.3
2015-Sep-03 01:32N 47°37' W 122°24'3 2.5
2015-Sep-03 00:29N 47°36' W 122°20'0 0.0
2015-Sep-02 23:42N 47°36' W 122°20'0 0.0
2015-Sep-02 23:32N 47°36' W 122°20'0 0.0
2015-Sep-02 23:31N 47°36' W 122°20'5 5.0
2015-Sep-02 22:33N 47°40' W 122°24'0 6.6
2015-Sep-02 22:32N 47°40' W 122°24'2 2.1
2015-Sep-02 21:33N 47°39' W 122°22'0 6.8
2015-Sep-02 21:31N 47°39' W 122°21'0 0.5
2015-Sep-02 20:33N 47°39' W 122°21'0 0.0
2015-Sep-02 20:31N 47°39' W 122°21'6 1.1
2015-Sep-02 15:23N 47°40' W 122°13'0 0.0
2015-Sep-02 14:29N 47°40' W 122°13'0 0.0
2015-Sep-02 13:30N 47°40' W 122°13'0 0.0
2015-Sep-02 12:30N 47°40' W 122°13'0 0.0
2015-Sep-02 11:19N 47°40' W 122°13'0 0.0
2015-Sep-02 10:32N 47°40' W 122°13'0 0.0
2015-Sep-02 09:35N 47°40' W 122°13'0 0.1
2015-Sep-02 09:32N 47°40' W 122°13'0 0.0
2015-Sep-02 09:20N 47°40' W 122°13'0 0.0
2015-Sep-02 08:33N 47°40' W 122°13'0 0.0
2015-Sep-02 07:28N 47°40' W 122°13'0 0.0
2015-Sep-02 06:28N 47°40' W 122°13'0 0.0
2015-Sep-02 05:53N 47°40' W 122°13'0 0.0
2015-Sep-02 05:29N 47°40' W 122°13'0 0.0
2015-Sep-02 04:53N 47°40' W 122°13'0 0.0
2015-Sep-02 04:30N 47°40' W 122°13'0 0.0
2015-Sep-02 03:30N 47°40' W 122°13'0 0.0
2015-Sep-02 02:31N 47°40' W 122°13'0 0.0
2015-Sep-02 01:26N 47°40' W 122°13'0 0.0
2015-Sep-02 00:32N 47°40' W 122°13'0 0.2
2015-Sep-01 23:58N 47°40' W 122°13'3 7.9
2015-Sep-01 23:32N 47°38' W 122°16'2 8.8
2015-Sep-01 23:21N 47°37' W 122°15'4 3.9
2015-Sep-01 22:23N 47°40' W 122°13'3 4.2
2015-Sep-01 21:46N 47°39' W 122°16'2 7.4
2015-Sep-01 21:33N 47°38' W 122°16'0 8.6
2015-Sep-01 21:31N 47°38' W 122°16'4 3.0
2015-Sep-01 20:17N 47°40' W 122°13'0 0.0
2015-Sep-01 19:30N 47°40' W 122°13'0 0.0
2015-Sep-01 18:30N 47°40' W 122°13'0 0.0
2015-Sep-01 18:16N 47°40' W 122°13'0 0.0
2015-Sep-01 17:25N 47°40' W 122°13'0 0.0
2015-Sep-01 16:26N 47°40' W 122°13'0 0.0
2015-Sep-01 15:32N 47°40' W 122°13'0 0.0
2015-Sep-01 15:00N 47°40' W 122°13'0 0.0
2015-Sep-01 14:33N 47°40' W 122°13'0 0.0
2015-Sep-01 13:16N 47°40' W 122°13'0 0.0
2015-Sep-01 12:11N 47°40' W 122°13'0 0.0
2015-Sep-01 11:26N 47°40' W 122°13'0 0.0
2015-Sep-01 10:30N 47°40' W 122°13'0 0.0
2015-Sep-01 09:25N 47°40' W 122°13'0 0.0
2015-Sep-01 08:25N 47°40' W 122°13'0 0.0
2015-Sep-01 07:20N 47°40' W 122°13'0 0.0
2015-Sep-01 06:27N 47°40' W 122°13'0 0.0
2015-Sep-01 05:21N 47°40' W 122°13'0 0.0
2015-Sep-01 04:28N 47°40' W 122°13'0 0.0
2015-Sep-01 03:29N 47°40' W 122°13'0 0.0
2015-Sep-01 02:29N 47°40' W 122°13'0 0.0
2015-Sep-01 02:17N 47°40' W 122°13'0 0.0
2015-Sep-01 01:24N 47°40' W 122°13'0 0.0
2015-Sep-01 01:12N 47°40' W 122°13'0 0.0
2015-Sep-01 00:31N 47°40' W 122°13'0 0.0
2015-Aug-31 23:25N 47°40' W 122°13'0 0.0
2015-Aug-31 22:32N 47°40' W 122°13'0 0.0
2015-Aug-31 22:32N 47°40' W 122°13'0 0.0
2015-Aug-31 21:32N 47°40' W 122°13'0 0.0
2015-Aug-31 20:33N 47°40' W 122°13'0 0.0
2015-Aug-31 20:21N 47°40' W 122°13'0 0.0
2015-Aug-31 19:16N 47°40' W 122°13'0 0.0
2015-Aug-31 19:16N 47°40' W 122°13'0 0.0
2015-Aug-31 18:29N 47°40' W 122°13'0 0.0
2015-Aug-31 17:29N 47°40' W 122°13'0 0.0
2015-Aug-31 16:06N 47°40' W 122°13'0 0.0
2015-Aug-31 16:00N 47°40' W 122°13'0 0.0
2015-Aug-31 15:25N 47°40' W 122°13'0 0.0
2015-Aug-31 14:40N 47°40' W 122°13'0 0.0
2015-Aug-31 14:31N 47°40' W 122°13'0 0.0
2015-Aug-31 13:14N 47°40' W 122°13'0 0.0
2015-Aug-31 12:44N 47°40' W 122°13'0 0.0
2015-Aug-31 12:27N 47°40' W 122°13'0 0.0
2015-Aug-31 11:39N 47°40' W 122°13'0 0.0
2015-Aug-31 11:27N 47°40' W 122°13'0 0.0
2015-Aug-31 10:22N 47°40' W 122°13'0 0.0
2015-Aug-31 09:29N 47°40' W 122°13'0 0.0
2015-Aug-31 09:14N 47°40' W 122°13'0 0.0
2015-Aug-31 08:23N 47°40' W 122°13'0 0.0
2015-Aug-31 07:30N 47°40' W 122°13'0 0.0
2015-Aug-31 06:31N 47°40' W 122°13'0 0.0
2015-Aug-31 05:31N 47°40' W 122°13'0 0.0
2015-Aug-31 04:32N 47°40' W 122°13'0 0.0
2015-Aug-31 03:33N 47°40' W 122°13'0 0.0
2015-Aug-31 02:33N 47°40' W 122°13'0 0.0
2015-Aug-31 01:31N 47°40' W 122°13'0 0.0
2015-Aug-31 00:29N 47°40' W 122°13'0 0.0
2015-Aug-30 23:29N 47°40' W 122°13'0 0.0
2015-Aug-30 22:30N 47°40' W 122°13'0 0.0
2015-Aug-30 22:27N 47°40' W 122°13'0 0.0
2015-Aug-30 21:31N 47°40' W 122°13'0 0.0
2015-Aug-30 21:16N 47°40' W 122°13'0 0.0
2015-Aug-30 20:25N 47°40' W 122°13'0 0.0
2015-Aug-30 19:32N 47°40' W 122°13'0 0.0
2015-Aug-30 18:33N 47°40' W 122°13'0 0.0
2015-Aug-30 17:27N 47°40' W 122°13'0 0.0
2015-Aug-30 16:28N 47°40' W 122°13'0 0.0
2015-Aug-30 15:29N 47°40' W 122°13'0 0.0
2015-Aug-30 14:29N 47°40' W 122°13'0 0.0
2015-Aug-29 19:33N 47°40' W 122°13'0 0.0
2015-Aug-29 17:10N 47°40' W 122°13'0 0.0
2015-Aug-29 16:29N 47°40' W 122°13'0 0.0
2015-Aug-29 15:30N 47°40' W 122°13'0 0.0
2015-Aug-29 14:18N 47°40' W 122°13'0 0.0
2015-Aug-29 13:31N 47°40' W 122°13'0 0.0
2015-Aug-29 12:31N 47°40' W 122°13'0 0.0
2015-Aug-29 11:32N 47°40' W 122°13'0 0.0
2015-Aug-29 10:33N 47°40' W 122°13'0 0.0
2015-Aug-29 09:33N 47°40' W 122°13'0 0.0
2015-Aug-29 08:10N 47°40' W 122°13'0 0.0
2015-Aug-29 07:29N 47°40' W 122°13'0 0.0
2015-Aug-29 06:27N 47°40' W 122°13'0 0.0
2015-Aug-29 05:33N 47°40' W 122°13'0 0.0
2015-Aug-29 04:31N 47°40' W 122°13'2 1.6
2015-Aug-29 03:32N 47°40' W 122°15'3 3.3
2015-Aug-29 02:33N 47°39' W 122°19'5 4.8
2015-Aug-29 01:33N 47°40' W 122°13'0 0.0
2015-Aug-29 00:33N 47°40' W 122°13'4 3.3
2015-Aug-28 23:24N 47°38' W 122°16'4 4.5
2015-Aug-28 22:33N 47°40' W 122°13'2 1.9
2015-Aug-28 21:33N 47°40' W 122°15'3 3.1
2015-Aug-28 20:33N 47°39' W 122°20'4 3.5
2015-Aug-28 19:33N 47°38' W 122°15'3 3.1
2015-Aug-28 18:33N 47°40' W 122°13'0 0.0
2015-Aug-28 17:33N 47°40' W 122°13'0 0.0
2015-Aug-28 16:28N 47°40' W 122°13'0 0.0
2015-Aug-28 15:29N 47°40' W 122°13'0 0.0
2015-Aug-28 14:29N 47°40' W 122°13'0 0.0
2015-Aug-28 13:24N 47°40' W 122°13'0 0.0
2015-Aug-28 12:31N 47°40' W 122°13'0 0.0
2015-Aug-28 11:31N 47°40' W 122°13'0 0.0
2015-Aug-28 10:32N 47°40' W 122°13'0 0.0
2015-Aug-28 09:33N 47°40' W 122°13'0 0.0
2015-Aug-28 08:33N 47°40' W 122°13'0 0.0
2015-Aug-28 07:16N 47°40' W 122°13'0 0.0
2015-Aug-28 06:32N 47°40' W 122°13'0 0.0
2015-Aug-28 04:09N 47°40' W 122°13'0 0.0
2015-Aug-28 03:28N 47°40' W 122°13'0 0.0
2015-Aug-28 02:31N 47°40' W 122°13'0 0.0
2015-Aug-28 01:32N 47°40' W 122°13'0 0.1
2015-Aug-28 00:33N 47°40' W 122°12'3 3.3
2015-Aug-27 23:33N 47°39' W 122°17'3 2.6
2015-Aug-27 22:19N 47°40' W 122°13'3 4.3
2015-Aug-27 21:30N 47°38' W 122°16'3 2.5
2015-Aug-27 20:07N 47°40' W 122°13'2 0.1
2015-Aug-27 04:30N 47°39' W 122°15'3 3.3
2015-Aug-27 03:33N 47°39' W 122°20'5 4.9
2015-Aug-27 02:33N 47°36' W 122°14'3 0.9
2015-Aug-26 23:29N 47°38' W 122°16'4 2.5
2015-Aug-26 22:03N 47°40' W 122°13'4 6.4
2015-Aug-26 21:29N 47°38' W 122°16'4 2.9
2015-Aug-26 20:13N 47°40' W 122°13'0 0.0
2015-Aug-26 18:14N 47°40' W 122°13'0 0.0
2015-Aug-26 17:09N 47°40' W 122°13'0 0.0
2015-Aug-26 15:22N 47°40' W 122°13'0 0.0
2015-Aug-26 14:22N 47°40' W 122°13'0 0.0
2015-Aug-26 13:17N 47°40' W 122°13'0 0.0
2015-Aug-26 11:30N 47°40' W 122°13'0 0.0
2015-Aug-26 10:31N 47°40' W 122°13'0 0.0
2015-Aug-26 09:32N 47°40' W 122°13'0 0.0
2015-Aug-26 08:32N 47°40' W 122°13'0 0.0
2015-Aug-26 07:27N 47°40' W 122°13'0 0.0
2015-Aug-26 06:04N 47°40' W 122°13'0 0.0
2015-Aug-26 04:23N 47°40' W 122°13'0 0.0
2015-Aug-26 03:24N 47°40' W 122°13'0 0.0
2015-Aug-26 02:30N 47°40' W 122°13'0 0.0
2015-Aug-26 01:25N 47°40' W 122°13'0 0.0
2015-Aug-26 00:32N 47°40' W 122°13'3 3.3
2015-Aug-25 23:33N 47°39' W 122°17'3 3.1
2015-Aug-25 22:33N 47°40' W 122°13'4 3.7
2015-Aug-25 21:33N 47°38' W 122°16'4 0.9
2015-Aug-25 17:24N 47°40' W 122°13'0 0.0
2015-Aug-25 16:19N 47°40' W 122°13'0 0.0
2015-Aug-25 14:32N 47°40' W 122°13'  
Track history (hours):
 
Tides and Currents Weather Stations Pressure Air Temp Water Temp Dewpoint Dewpoint Depression Visibility Wind Speed Wind Dir Waves Ship Positions

Lady Mary

Owner: BLACKMAN, JOHN H, SEATTLE, WA. More information available from US FCC via Universal Licensing System and Coast Guard Vessel Documentation Center.

Last reported at 2015-Sep-04 14:07 UTC. Time now 2015-Sep-04 14:37 UTC.
Position N 47°40' W 122°13'.

Length 26 m.

Type: Passenger vessel. MMSI: 367013060.

Date/timePositionNaut miles runAvg speedWind from/ knotsBaromVisibWave heightAir tempDewpointWater temp
2015-Sep-04 14:07N 47°40' W 122°13'0 0.0
2015-Sep-04 13:31N 47°40' W 122°13'0 0.0
2015-Sep-04 12:14N 47°40' W 122°13'0 0.0
2015-Sep-04 11:32N 47°40' W 122°13'0 0.0
2015-Sep-04 10:09N 47°40' W 122°13'0 0.0
2015-Sep-04 09:16N 47°40' W 122°13'0 0.0
2015-Sep-04 08:28N 47°40' W 122°13'0 0.0
2015-Sep-04 07:29N 47°40' W 122°13'0 0.0
2015-Sep-04 06:53N 47°40' W 122°13'0 0.0
2015-Sep-04 06:06N 47°40' W 122°13'0 0.0
2015-Sep-04 05:30N 47°40' W 122°13'0 0.0
2015-Sep-04 04:16N 47°40' W 122°13'1 4.5
2015-Sep-04 04:03N 47°40' W 122°14'4 5.9
2015-Sep-04 03:21N 47°39' W 122°20'1 5.9
2015-Sep-04 03:13N 47°38' W 122°20'2 3.1
2015-Sep-04 02:26N 47°39' W 122°17'3 1.4
2015-Sep-04 00:11N 47°40' W 122°13'2 4.1
2015-Sep-03 23:37N 47°39' W 122°15'0 7.2
2015-Sep-03 23:33N 47°38' W 122°15'0 6.8
2015-Sep-03 23:32N 47°38' W 122°15'3 2.4
2015-Sep-03 22:20N 47°40' W 122°13'0 0.2
2015-Sep-03 22:06N 47°40' W 122°13'3 5.2
2015-Sep-03 21:32N 47°38' W 122°15'1 7.0
2015-Sep-03 21:26N 47°37' W 122°15'4 3.0
2015-Sep-03 20:15N 47°40' W 122°13'0 0.0
2015-Sep-03 20:10N 47°40' W 122°13'0 0.0
2015-Sep-03 19:04N 47°40' W 122°13'0 0.0
2015-Sep-03 18:43N 47°40' W 122°13'0 0.0
2015-Sep-03 18:17N 47°40' W 122°13'0 0.0
2015-Sep-03 17:23N 47°40' W 122°13'0 0.0
2015-Sep-03 16:24N 47°40' W 122°13'0 0.0
2015-Sep-03 14:25N 47°40' W 122°13'0 0.0
2015-Sep-03 13:20N 47°40' W 122°13'0 0.0
2015-Sep-03 11:51N 47°40' W 122°13'0 0.0
2015-Sep-03 11:33N 47°40' W 122°13'0 0.0
2015-Sep-03 10:40N 47°40' W 122°13'0 0.0
2015-Sep-03 10:28N 47°40' W 122°13'0 0.1
2015-Sep-03 10:25N 47°40' W 122°13'0 0.0
2015-Sep-03 09:23N 47°40' W 122°13'0 0.0
2015-Sep-03 09:14N 47°40' W 122°13'0 0.0
2015-Sep-03 08:23N 47°40' W 122°13'0 0.0
2015-Sep-03 07:27N 47°40' W 122°13'0 0.0
2015-Sep-03 06:33N 47°40' W 122°13'3 6.2
2015-Sep-03 06:03N 47°39' W 122°16'3 5.0
2015-Sep-03 05:33N 47°39' W 122°20'4 4.4
2015-Sep-03 04:33N 47°40' W 122°26'0 8.7
2015-Sep-03 04:33N 47°40' W 122°27'5 4.6
2015-Sep-03 03:24N 47°36' W 122°20'0 3.2
2015-Sep-03 03:17N 47°36' W 122°21'4 6.0
2015-Sep-03 02:33N 47°39' W 122°26'0 5.3
2015-Sep-03 02:32N 47°39' W 122°26'2 2.1
2015-Sep-03 01:33N 47°38' W 122°24'0 6.3
2015-Sep-03 01:32N 47°37' W 122°24'3 2.5
2015-Sep-03 00:29N 47°36' W 122°20'0 0.0
2015-Sep-02 23:42N 47°36' W 122°20'0 0.0
2015-Sep-02 23:32N 47°36' W 122°20'0 0.0
2015-Sep-02 23:31N 47°36' W 122°20'5 5.0
2015-Sep-02 22:33N 47°40' W 122°24'0 6.6
2015-Sep-02 22:32N 47°40' W 122°24'2 2.1
2015-Sep-02 21:33N 47°39' W 122°22'0 6.8
2015-Sep-02 21:31N 47°39' W 122°21'0 0.5
2015-Sep-02 20:33N 47°39' W 122°21'0 0.0
2015-Sep-02 20:31N 47°39' W 122°21'6 1.1
2015-Sep-02 15:23N 47°40' W 122°13'0 0.0
2015-Sep-02 14:29N 47°40' W 122°13'0 0.0
2015-Sep-02 13:30N 47°40' W 122°13'0 0.0
2015-Sep-02 12:30N 47°40' W 122°13'0 0.0
2015-Sep-02 11:19N 47°40' W 122°13'0 0.0
2015-Sep-02 10:32N 47°40' W 122°13'0 0.0
2015-Sep-02 09:35N 47°40' W 122°13'0 0.1
2015-Sep-02 09:32N 47°40' W 122°13'0 0.0
2015-Sep-02 09:20N 47°40' W 122°13'0 0.0
2015-Sep-02 08:33N 47°40' W 122°13'0 0.0
2015-Sep-02 07:28N 47°40' W 122°13'0 0.0
2015-Sep-02 06:28N 47°40' W 122°13'0 0.0
2015-Sep-02 05:53N 47°40' W 122°13'0 0.0
2015-Sep-02 05:29N 47°40' W 122°13'0 0.0
2015-Sep-02 04:53N 47°40' W 122°13'0 0.0
2015-Sep-02 04:30N 47°40' W 122°13'0 0.0
2015-Sep-02 03:30N 47°40' W 122°13'0 0.0
2015-Sep-02 02:31N 47°40' W 122°13'0 0.0
2015-Sep-02 01:26N 47°40' W 122°13'0 0.0
2015-Sep-02 00:32N 47°40' W 122°13'0 0.2
2015-Sep-01 23:58N 47°40' W 122°13'3 7.9
2015-Sep-01 23:32N 47°38' W 122°16'2 8.8
2015-Sep-01 23:21N 47°37' W 122°15'4 3.9
2015-Sep-01 22:23N 47°40' W 122°13'3 4.2
2015-Sep-01 21:46N 47°39' W 122°16'2 7.4
2015-Sep-01 21:33N 47°38' W 122°16'0 8.6
2015-Sep-01 21:31N 47°38' W 122°16'4 3.0
2015-Sep-01 20:17N 47°40' W 122°13'0 0.0
2015-Sep-01 19:30N 47°40' W 122°13'0 0.0
2015-Sep-01 18:30N 47°40' W 122°13'0 0.0
2015-Sep-01 18:16N 47°40' W 122°13'0 0.0
2015-Sep-01 17:25N 47°40' W 122°13'0 0.0
2015-Sep-01 16:26N 47°40' W 122°13'0 0.0
2015-Sep-01 15:32N 47°40' W 122°13'0 0.0
2015-Sep-01 15:00N 47°40' W 122°13'0 0.0
2015-Sep-01 14:33N 47°40' W 122°13'0 0.0
2015-Sep-01 13:16N 47°40' W 122°13'0 0.0
2015-Sep-01 12:11N 47°40' W 122°13'0 0.0
2015-Sep-01 11:26N 47°40' W 122°13'0 0.0
2015-Sep-01 10:30N 47°40' W 122°13'0 0.0
2015-Sep-01 09:25N 47°40' W 122°13'0 0.0
2015-Sep-01 08:25N 47°40' W 122°13'0 0.0
2015-Sep-01 07:20N 47°40' W 122°13'0 0.0
2015-Sep-01 06:27N 47°40' W 122°13'0 0.0
2015-Sep-01 05:21N 47°40' W 122°13'0 0.0
2015-Sep-01 04:28N 47°40' W 122°13'0 0.0
2015-Sep-01 03:29N 47°40' W 122°13'0 0.0
2015-Sep-01 02:29N 47°40' W 122°13'0 0.0
2015-Sep-01 02:17N 47°40' W 122°13'0 0.0
2015-Sep-01 01:24N 47°40' W 122°13'0 0.0
2015-Sep-01 01:12N 47°40' W 122°13'0 0.0
2015-Sep-01 00:31N 47°40' W 122°13'0 0.0
2015-Aug-31 23:25N 47°40' W 122°13'0 0.0
2015-Aug-31 22:32N 47°40' W 122°13'0 0.0
2015-Aug-31 22:32N 47°40' W 122°13'0 0.0
2015-Aug-31 21:32N 47°40' W 122°13'0 0.0
2015-Aug-31 20:33N 47°40' W 122°13'0 0.0
2015-Aug-31 20:21N 47°40' W 122°13'0 0.0
2015-Aug-31 19:16N 47°40' W 122°13'0 0.0
2015-Aug-31 19:16N 47°40' W 122°13'0 0.0
2015-Aug-31 18:29N 47°40' W 122°13'0 0.0
2015-Aug-31 17:29N 47°40' W 122°13'0 0.0
2015-Aug-31 16:06N 47°40' W 122°13'0 0.0
2015-Aug-31 16:00N 47°40' W 122°13'0 0.0
2015-Aug-31 15:25N 47°40' W 122°13'0 0.0
2015-Aug-31 14:40N 47°40' W 122°13'0 0.0
2015-Aug-31 14:31N 47°40' W 122°13'0 0.0
2015-Aug-31 13:14N 47°40' W 122°13'0 0.0
2015-Aug-31 12:44N 47°40' W 122°13'0 0.0
2015-Aug-31 12:27N 47°40' W 122°13'0 0.0
2015-Aug-31 11:39N 47°40' W 122°13'0 0.0
2015-Aug-31 11:27N 47°40' W 122°13'0 0.0
2015-Aug-31 10:22N 47°40' W 122°13'0 0.0
2015-Aug-31 09:29N 47°40' W 122°13'0 0.0
2015-Aug-31 09:14N 47°40' W 122°13'0 0.0
2015-Aug-31 08:23N 47°40' W 122°13'0 0.0
2015-Aug-31 07:30N 47°40' W 122°13'0 0.0
2015-Aug-31 06:31N 47°40' W 122°13'0 0.0
2015-Aug-31 05:31N 47°40' W 122°13'0 0.0
2015-Aug-31 04:32N 47°40' W 122°13'0 0.0
2015-Aug-31 03:33N 47°40' W 122°13'0 0.0
2015-Aug-31 02:33N 47°40' W 122°13'0 0.0
2015-Aug-31 01:31N 47°40' W 122°13'0 0.0
2015-Aug-31 00:29N 47°40' W 122°13'0 0.0
2015-Aug-30 23:29N 47°40' W 122°13'0 0.0
2015-Aug-30 22:30N 47°40' W 122°13'0 0.0
2015-Aug-30 22:27N 47°40' W 122°13'0 0.0
2015-Aug-30 21:31N 47°40' W 122°13'0 0.0
2015-Aug-30 21:16N 47°40' W 122°13'0 0.0
2015-Aug-30 20:25N 47°40' W 122°13'0 0.0
2015-Aug-30 19:32N 47°40' W 122°13'0 0.0
2015-Aug-30 18:33N 47°40' W 122°13'0 0.0
2015-Aug-30 17:27N 47°40' W 122°13'0 0.0
2015-Aug-30 16:28N 47°40' W 122°13'0 0.0
2015-Aug-30 15:29N 47°40' W 122°13'0 0.0
2015-Aug-30 14:29N 47°40' W 122°13'0 0.0
2015-Aug-29 19:33N 47°40' W 122°13'0 0.0
2015-Aug-29 17:10N 47°40' W 122°13'0 0.0
2015-Aug-29 16:29N 47°40' W 122°13'0 0.0
2015-Aug-29 15:30N 47°40' W 122°13'0 0.0
2015-Aug-29 14:18N 47°40' W 122°13'0 0.0
2015-Aug-29 13:31N 47°40' W 122°13'0 0.0
2015-Aug-29 12:31N 47°40' W 122°13'0 0.0
2015-Aug-29 11:32N 47°40' W 122°13'0 0.0
2015-Aug-29 10:33N 47°40' W 122°13'0 0.0
2015-Aug-29 09:33N 47°40' W 122°13'0 0.0
2015-Aug-29 08:10N 47°40' W 122°13'0 0.0
2015-Aug-29 07:29N 47°40' W 122°13'0 0.0
2015-Aug-29 06:27N 47°40' W 122°13'0 0.0
2015-Aug-29 05:33N 47°40' W 122°13'0 0.0
2015-Aug-29 04:31N 47°40' W 122°13'2 1.6
2015-Aug-29 03:32N 47°40' W 122°15'3 3.3
2015-Aug-29 02:33N 47°39' W 122°19'5 4.8
2015-Aug-29 01:33N 47°40' W 122°13'0 0.0
2015-Aug-29 00:33N 47°40' W 122°13'4 3.3
2015-Aug-28 23:24N 47°38' W 122°16'4 4.5
2015-Aug-28 22:33N 47°40' W 122°13'2 1.9
2015-Aug-28 21:33N 47°40' W 122°15'3 3.1
2015-Aug-28 20:33N 47°39' W 122°20'4 3.5
2015-Aug-28 19:33N 47°38' W 122°15'3 3.1
2015-Aug-28 18:33N 47°40' W 122°13'0 0.0
2015-Aug-28 17:33N 47°40' W 122°13'0 0.0
2015-Aug-28 16:28N 47°40' W 122°13'0 0.0
2015-Aug-28 15:29N 47°40' W 122°13'0 0.0
2015-Aug-28 14:29N 47°40' W 122°13'0 0.0
2015-Aug-28 13:24N 47°40' W 122°13'0 0.0
2015-Aug-28 12:31N 47°40' W 122°13'0 0.0
2015-Aug-28 11:31N 47°40' W 122°13'0 0.0
2015-Aug-28 10:32N 47°40' W 122°13'0 0.0
2015-Aug-28 09:33N 47°40' W 122°13'0 0.0
2015-Aug-28 08:33N 47°40' W 122°13'0 0.0
2015-Aug-28 07:16N 47°40' W 122°13'0 0.0
2015-Aug-28 06:32N 47°40' W 122°13'0 0.0
2015-Aug-28 04:09N 47°40' W 122°13'0 0.0
2015-Aug-28 03:28N 47°40' W 122°13'0 0.0
2015-Aug-28 02:31N 47°40' W 122°13'0 0.0
2015-Aug-28 01:32N 47°40' W 122°13'0 0.1
2015-Aug-28 00:33N 47°40' W 122°12'3 3.3
2015-Aug-27 23:33N 47°39' W 122°17'3 2.6
2015-Aug-27 22:19N 47°40' W 122°13'3 4.3
2015-Aug-27 21:30N 47°38' W 122°16'3 2.5
2015-Aug-27 20:07N 47°40' W 122°13'2 0.1
2015-Aug-27 04:30N 47°39' W 122°15'3 3.3
2015-Aug-27 03:33N 47°39' W 122°20'5 4.9
2015-Aug-27 02:33N 47°36' W 122°14'3 0.9
2015-Aug-26 23:29N 47°38' W 122°16'4 2.5
2015-Aug-26 22:03N 47°40' W 122°13'4 6.4
2015-Aug-26 21:29N 47°38' W 122°16'4 2.9
2015-Aug-26 20:13N 47°40' W 122°13'0 0.0
2015-Aug-26 18:14N 47°40' W 122°13'0 0.0
2015-Aug-26 17:09N 47°40' W 122°13'0 0.0
2015-Aug-26 15:22N 47°40' W 122°13'0 0.0
2015-Aug-26 14:22N 47°40' W 122°13'0 0.0
2015-Aug-26 13:17N 47°40' W 122°13'0 0.0
2015-Aug-26 11:30N 47°40' W 122°13'0 0.0
2015-Aug-26 10:31N 47°40' W 122°13'0 0.0
2015-Aug-26 09:32N 47°40' W 122°13'0 0.0
2015-Aug-26 08:32N 47°40' W 122°13'0 0.0
2015-Aug-26 07:27N 47°40' W 122°13'0 0.0
2015-Aug-26 06:04N 47°40' W 122°13'0 0.0
2015-Aug-26 04:23N 47°40' W 122°13'0 0.0
2015-Aug-26 03:24N 47°40' W 122°13'0 0.0
2015-Aug-26 02:30N 47°40' W 122°13'0 0.0
2015-Aug-26 01:25N 47°40' W 122°13'0 0.0
2015-Aug-26 00:32N 47°40' W 122°13'3 3.3
2015-Aug-25 23:33N 47°39' W 122°17'3 3.1
2015-Aug-25 22:33N 47°40' W 122°13'4 3.7
2015-Aug-25 21:33N 47°38' W 122°16'4 0.9
2015-Aug-25 17:24N 47°40' W 122°13'0 0.0
2015-Aug-25 16:19N 47°40' W 122°13'0 0.0
2015-Aug-25 14:32N 47°40' W 122°13'  

Dump ship's entire track history